sensor_id;sensor_type;location;lat;lon;timestamp;temperature;humidity
36924;DHT22;22841;50.252;18.688;2024-02-14T00:00:12;2.20;99.90
36924;DHT22;22841;50.252;18.688;2024-02-14T00:02:43;2.10;99.90
36924;DHT22;22841;50.252;18.688;2024-02-14T00:05:10;2.10;99.90
36924;DHT22;22841;50.252;18.688;2024-02-14T00:07:39;2.10;99.90
36924;DHT22;22841;50.252;18.688;2024-02-14T00:10:05;2.10;99.90
36924;DHT22;22841;50.252;18.688;2024-02-14T00:12:33;2.10;99.90
36924;DHT22;22841;50.252;18.688;2024-02-14T00:14:59;2.10;99.90
36924;DHT22;22841;50.252;18.688;2024-02-14T00:17:25;2.10;99.90
36924;DHT22;22841;50.252;18.688;2024-02-14T00:19:51;2.10;99.90
36924;DHT22;22841;50.252;18.688;2024-02-14T00:22:18;2.10;99.90
36924;DHT22;22841;50.252;18.688;2024-02-14T00:24:44;2.10;99.90
36924;DHT22;22841;50.252;18.688;2024-02-14T00:27:10;2.10;99.90
36924;DHT22;22841;50.252;18.688;2024-02-14T00:29:37;2.30;99.90
36924;DHT22;22841;50.252;18.688;2024-02-14T00:32:03;2.10;99.90
36924;DHT22;22841;50.252;18.688;2024-02-14T00:34:30;2.10;99.90
36924;DHT22;22841;50.252;18.688;2024-02-14T00:36:56;2.10;99.90
36924;DHT22;22841;50.252;18.688;2024-02-14T00:39:22;2.10;99.90
36924;DHT22;22841;50.252;18.688;2024-02-14T00:41:53;2.10;99.90
36924;DHT22;22841;50.252;18.688;2024-02-14T00:44:20;2.10;99.90
36924;DHT22;22841;50.252;18.688;2024-02-14T00:46:46;2.00;99.90
36924;DHT22;22841;50.252;18.688;2024-02-14T00:49:12;2.10;99.90
36924;DHT22;22841;50.252;18.688;2024-02-14T00:51:39;2.10;99.90
36924;DHT22;22841;50.252;18.688;2024-02-14T00:54:06;2.10;99.90
36924;DHT22;22841;50.252;18.688;2024-02-14T00:56:32;2.10;99.90
36924;DHT22;22841;50.252;18.688;2024-02-14T00:58:59;2.30;99.90
36924;DHT22;22841;50.252;18.688;2024-02-14T01:01:25;2.20;99.90
36924;DHT22;22841;50.252;18.688;2024-02-14T01:03:51;2.20;99.90
36924;DHT22;22841;50.252;18.688;2024-02-14T01:06:17;2.20;99.90
36924;DHT22;22841;50.252;18.688;2024-02-14T01:08:44;2.30;99.90
36924;DHT22;22841;50.252;18.688;2024-02-14T01:11:10;2.20;99.90
36924;DHT22;22841;50.252;18.688;2024-02-14T01:13:36;2.40;99.90
36924;DHT22;22841;50.252;18.688;2024-02-14T01:16:03;2.20;99.90
36924;DHT22;22841;50.252;18.688;2024-02-14T01:18:33;2.20;99.90
36924;DHT22;22841;50.252;18.688;2024-02-14T01:20:59;2.20;99.90
36924;DHT22;22841;50.252;18.688;2024-02-14T01:23:26;2.20;99.90
36924;DHT22;22841;50.252;18.688;2024-02-14T01:25:53;2.20;99.90
36924;DHT22;22841;50.252;18.688;2024-02-14T01:28:20;2.20;99.90
36924;DHT22;22841;50.252;18.688;2024-02-14T01:30:46;2.20;99.90
36924;DHT22;22841;50.252;18.688;2024-02-14T01:33:13;2.20;99.90
36924;DHT22;22841;50.252;18.688;2024-02-14T01:35:39;2.20;99.90
36924;DHT22;22841;50.252;18.688;2024-02-14T01:38:05;2.20;99.90
36924;DHT22;22841;50.252;18.688;2024-02-14T01:40:32;2.20;99.90
36924;DHT22;22841;50.252;18.688;2024-02-14T01:42:58;2.20;99.90
36924;DHT22;22841;50.252;18.688;2024-02-14T01:45:24;2.20;99.90
36924;DHT22;22841;50.252;18.688;2024-02-14T01:47:51;2.10;99.90
36924;DHT22;22841;50.252;18.688;2024-02-14T01:50:17;2.10;99.90
36924;DHT22;22841;50.252;18.688;2024-02-14T01:52:45;2.10;99.90
36924;DHT22;22841;50.252;18.688;2024-02-14T01:55:12;2.10;99.90
36924;DHT22;22841;50.252;18.688;2024-02-14T01:57:39;2.10;99.90
36924;DHT22;22841;50.252;18.688;2024-02-14T02:00:06;2.10;99.90
36924;DHT22;22841;50.252;18.688;2024-02-14T02:02:38;2.00;99.90
36924;DHT22;22841;50.252;18.688;2024-02-14T02:05:05;2.20;99.90
36924;DHT22;22841;50.252;18.688;2024-02-14T02:07:32;2.20;99.90
36924;DHT22;22841;50.252;18.688;2024-02-14T02:09:59;2.10;99.90
36924;DHT22;22841;50.252;18.688;2024-02-14T02:12:26;2.10;99.90
36924;DHT22;22841;50.252;18.688;2024-02-14T02:14:53;2.00;99.90
36924;DHT22;22841;50.252;18.688;2024-02-14T02:17:20;2.00;99.90
36924;DHT22;22841;50.252;18.688;2024-02-14T02:19:47;2.00;99.90
36924;DHT22;22841;50.252;18.688;2024-02-14T02:22:13;1.90;99.90
36924;DHT22;22841;50.252;18.688;2024-02-14T02:24:39;1.80;99.90
36924;DHT22;22841;50.252;18.688;2024-02-14T02:27:06;1.90;99.90
36924;DHT22;22841;50.252;18.688;2024-02-14T02:29:32;1.80;99.90
36924;DHT22;22841;50.252;18.688;2024-02-14T02:31:59;1.90;99.90
36924;DHT22;22841;50.252;18.688;2024-02-14T02:34:25;1.80;99.90
36924;DHT22;22841;50.252;18.688;2024-02-14T02:36:53;1.80;99.90
36924;DHT22;22841;50.252;18.688;2024-02-14T02:39:19;1.90;99.90
36924;DHT22;22841;50.252;18.688;2024-02-14T02:41:46;1.70;99.90
36924;DHT22;22841;50.252;18.688;2024-02-14T02:44:14;1.70;99.90
36924;DHT22;22841;50.252;18.688;2024-02-14T02:46:40;1.80;99.90
36924;DHT22;22841;50.252;18.688;2024-02-14T02:49:07;1.70;99.90
36924;DHT22;22841;50.252;18.688;2024-02-14T02:51:33;1.80;99.90
36924;DHT22;22841;50.252;18.688;2024-02-14T02:54:00;1.60;99.90
36924;DHT22;22841;50.252;18.688;2024-02-14T02:56:26;1.70;99.90
36924;DHT22;22841;50.252;18.688;2024-02-14T02:58:55;1.70;99.90
36924;DHT22;22841;50.252;18.688;2024-02-14T03:01:21;1.70;99.90
36924;DHT22;22841;50.252;18.688;2024-02-14T03:03:50;1.60;99.90
36924;DHT22;22841;50.252;18.688;2024-02-14T03:06:16;1.50;99.90
36924;DHT22;22841;50.252;18.688;2024-02-14T03:11:18;1.60;99.90
36924;DHT22;22841;50.252;18.688;2024-02-14T03:16:20;1.50;99.90
36924;DHT22;22841;50.252;18.688;2024-02-14T03:21:17;1.50;99.90
36924;DHT22;22841;50.252;18.688;2024-02-14T03:28:55;1.50;99.90
36924;DHT22;22841;50.252;18.688;2024-02-14T03:31:22;1.50;99.90
36924;DHT22;22841;50.252;18.688;2024-02-14T03:33:48;1.50;99.90
36924;DHT22;22841;50.252;18.688;2024-02-14T05:51:16;1.00;99.90
36924;DHT22;22841;50.252;18.688;2024-02-14T05:53:43;1.00;99.90
36924;DHT22;22841;50.252;18.688;2024-02-14T05:56:09;1.00;99.90
36924;DHT22;22841;50.252;18.688;2024-02-14T05:58:35;1.00;99.90
36924;DHT22;22841;50.252;18.688;2024-02-14T06:01:01;1.00;99.90
36924;DHT22;22841;50.252;18.688;2024-02-14T06:03:28;1.00;99.90
36924;DHT22;22841;50.252;18.688;2024-02-14T06:05:54;1.00;99.90
36924;DHT22;22841;50.252;18.688;2024-02-14T06:08:21;1.00;99.90
36924;DHT22;22841;50.252;18.688;2024-02-14T06:10:49;1.00;99.90
36924;DHT22;22841;50.252;18.688;2024-02-14T06:13:16;0.90;99.90
36924;DHT22;22841;50.252;18.688;2024-02-14T06:15:42;0.90;99.90
36924;DHT22;22841;50.252;18.688;2024-02-14T06:18:08;0.90;99.90
36924;DHT22;22841;50.252;18.688;2024-02-14T06:20:35;1.00;99.90
36924;DHT22;22841;50.252;18.688;2024-02-14T06:23:02;0.90;99.90
36924;DHT22;22841;50.252;18.688;2024-02-14T06:25:28;0.90;99.90
36924;DHT22;22841;50.252;18.688;2024-02-14T06:27:55;0.90;99.90
36924;DHT22;22841;50.252;18.688;2024-02-14T06:30:21;0.90;99.90
36924;DHT22;22841;50.252;18.688;2024-02-14T06:35:30;0.90;99.90
36924;DHT22;22841;50.252;18.688;2024-02-14T06:40:38;1.00;99.90
36924;DHT22;22841;50.252;18.688;2024-02-14T06:58:41;0.90;99.90
36924;DHT22;22841;50.252;18.688;2024-02-14T07:12:23;0.80;99.90
36924;DHT22;22841;50.252;18.688;2024-02-14T07:14:50;0.90;99.90
36924;DHT22;22841;50.252;18.688;2024-02-14T07:25:05;0.90;99.90
36924;DHT22;22841;50.252;18.688;2024-02-14T07:33:20;1.00;99.90
36924;DHT22;22841;50.252;18.688;2024-02-14T07:35:47;1.10;99.90
36924;DHT22;22841;50.252;18.688;2024-02-14T07:40:55;1.20;99.90
36924;DHT22;22841;50.252;18.688;2024-02-14T07:43:36;1.20;99.90
36924;DHT22;22841;50.252;18.688;2024-02-14T07:46:02;1.30;99.90
36924;DHT22;22841;50.252;18.688;2024-02-14T07:51:07;1.40;99.90
36924;DHT22;22841;50.252;18.688;2024-02-14T07:53:34;1.40;99.90
36924;DHT22;22841;50.252;18.688;2024-02-14T07:56:00;1.50;99.90
36924;DHT22;22841;50.252;18.688;2024-02-14T07:58:26;1.60;99.90
36924;DHT22;22841;50.252;18.688;2024-02-14T08:00:53;1.70;99.90
36924;DHT22;22841;50.252;18.688;2024-02-14T08:03:19;1.70;99.90
36924;DHT22;22841;50.252;18.688;2024-02-14T08:05:45;1.80;99.90
36924;DHT22;22841;50.252;18.688;2024-02-14T08:08:11;1.80;99.90
36924;DHT22;22841;50.252;18.688;2024-02-14T08:10:37;1.90;99.90
36924;DHT22;22841;50.252;18.688;2024-02-14T08:13:04;2.00;99.90
36924;DHT22;22841;50.252;18.688;2024-02-14T08:15:30;2.00;99.90
36924;DHT22;22841;50.252;18.688;2024-02-14T08:17:57;2.20;99.90
36924;DHT22;22841;50.252;18.688;2024-02-14T08:20:25;2.30;99.90
36924;DHT22;22841;50.252;18.688;2024-02-14T08:22:51;2.30;99.90
36924;DHT22;22841;50.252;18.688;2024-02-14T08:25:17;2.40;99.90
36924;DHT22;22841;50.252;18.688;2024-02-14T08:27:43;2.50;99.90
36924;DHT22;22841;50.252;18.688;2024-02-14T08:30:09;2.70;99.90
36924;DHT22;22841;50.252;18.688;2024-02-14T08:32:38;2.70;99.90
36924;DHT22;22841;50.252;18.688;2024-02-14T08:35:04;2.90;99.90
36924;DHT22;22841;50.252;18.688;2024-02-14T08:37:30;3.00;99.90
36924;DHT22;22841;50.252;18.688;2024-02-14T08:39:57;3.10;99.90
36924;DHT22;22841;50.252;18.688;2024-02-14T08:42:23;3.10;99.90
36924;DHT22;22841;50.252;18.688;2024-02-14T08:44:49;3.10;99.90
36924;DHT22;22841;50.252;18.688;2024-02-14T08:47:15;3.20;99.90
36924;DHT22;22841;50.252;18.688;2024-02-14T08:49:41;3.30;99.90
36924;DHT22;22841;50.252;18.688;2024-02-14T08:52:08;3.60;99.90
36924;DHT22;22841;50.252;18.688;2024-02-14T08:54:34;3.70;99.90
36924;DHT22;22841;50.252;18.688;2024-02-14T08:57:00;3.70;99.90
36924;DHT22;22841;50.252;18.688;2024-02-14T08:59:26;3.90;99.90
36924;DHT22;22841;50.252;18.688;2024-02-14T09:01:52;3.90;99.90
36924;DHT22;22841;50.252;18.688;2024-02-14T09:04:18;4.10;99.90
36924;DHT22;22841;50.252;18.688;2024-02-14T09:06:45;4.20;99.90
36924;DHT22;22841;50.252;18.688;2024-02-14T09:09:11;4.30;99.90
36924;DHT22;22841;50.252;18.688;2024-02-14T09:11:37;4.40;99.90
36924;DHT22;22841;50.252;18.688;2024-02-14T09:14:03;4.70;99.90
36924;DHT22;22841;50.252;18.688;2024-02-14T09:16:35;4.80;99.90
36924;DHT22;22841;50.252;18.688;2024-02-14T09:19:01;5.00;99.90
36924;DHT22;22841;50.252;18.688;2024-02-14T09:21:27;5.10;99.90
36924;DHT22;22841;50.252;18.688;2024-02-14T09:23:56;5.30;99.90
36924;DHT22;22841;50.252;18.688;2024-02-14T09:26:23;5.30;99.90
36924;DHT22;22841;50.252;18.688;2024-02-14T09:28:49;5.40;99.90
36924;DHT22;22841;50.252;18.688;2024-02-14T09:31:19;5.50;99.90
36924;DHT22;22841;50.252;18.688;2024-02-14T09:33:47;5.60;99.90
36924;DHT22;22841;50.252;18.688;2024-02-14T09:36:13;5.60;99.90
36924;DHT22;22841;50.252;18.688;2024-02-14T09:38:42;5.80;99.90
36924;DHT22;22841;50.252;18.688;2024-02-14T09:41:22;5.90;99.90
36924;DHT22;22841;50.252;18.688;2024-02-14T09:43:48;5.90;99.90
36924;DHT22;22841;50.252;18.688;2024-02-14T09:46:16;6.00;99.90
36924;DHT22;22841;50.252;18.688;2024-02-14T09:48:46;6.10;99.90
36924;DHT22;22841;50.252;18.688;2024-02-14T09:51:13;6.20;99.90
36924;DHT22;22841;50.252;18.688;2024-02-14T09:53:40;6.20;99.90
36924;DHT22;22841;50.252;18.688;2024-02-14T09:56:06;6.30;99.90
36924;DHT22;22841;50.252;18.688;2024-02-14T09:58:35;6.30;99.90
36924;DHT22;22841;50.252;18.688;2024-02-14T10:01:02;6.40;99.90
36924;DHT22;22841;50.252;18.688;2024-02-14T10:03:28;6.50;99.90
36924;DHT22;22841;50.252;18.688;2024-02-14T10:05:54;6.60;99.90
36924;DHT22;22841;50.252;18.688;2024-02-14T10:08:21;6.60;99.90
36924;DHT22;22841;50.252;18.688;2024-02-14T10:10:49;6.60;99.90
36924;DHT22;22841;50.252;18.688;2024-02-14T10:13:18;6.70;99.90
36924;DHT22;22841;50.252;18.688;2024-02-14T10:15:45;6.70;99.90
36924;DHT22;22841;50.252;18.688;2024-02-14T10:18:11;6.70;99.90
36924;DHT22;22841;50.252;18.688;2024-02-14T10:20:37;6.90;99.90
36924;DHT22;22841;50.252;18.688;2024-02-14T10:23:10;6.80;99.90
36924;DHT22;22841;50.252;18.688;2024-02-14T10:25:37;6.90;99.90
36924;DHT22;22841;50.252;18.688;2024-02-14T10:28:05;7.00;99.90
36924;DHT22;22841;50.252;18.688;2024-02-14T10:30:37;7.00;99.90
36924;DHT22;22841;50.252;18.688;2024-02-14T10:33:06;7.00;99.90
36924;DHT22;22841;50.252;18.688;2024-02-14T10:35:35;6.90;99.90
36924;DHT22;22841;50.252;18.688;2024-02-14T10:38:03;6.90;99.90
36924;DHT22;22841;50.252;18.688;2024-02-14T10:40:32;6.90;99.90
36924;DHT22;22841;50.252;18.688;2024-02-14T10:42:58;7.00;99.90
36924;DHT22;22841;50.252;18.688;2024-02-14T10:45:25;7.10;92.20
36924;DHT22;22841;50.252;18.688;2024-02-14T10:47:53;7.20;99.90
36924;DHT22;22841;50.252;18.688;2024-02-14T10:50:22;7.20;99.90
36924;DHT22;22841;50.252;18.688;2024-02-14T10:52:49;7.20;92.60
36924;DHT22;22841;50.252;18.688;2024-02-14T10:55:17;7.20;68.40
36924;DHT22;22841;50.252;18.688;2024-02-14T10:57:45;7.30;99.90
36924;DHT22;22841;50.252;18.688;2024-02-14T11:00:14;7.20;92.90
36924;DHT22;22841;50.252;18.688;2024-02-14T11:02:42;7.30;68.00
36924;DHT22;22841;50.252;18.688;2024-02-14T11:05:15;7.20;99.90
36924;DHT22;22841;50.252;18.688;2024-02-14T11:07:47;7.20;98.20
36924;DHT22;22841;50.252;18.688;2024-02-14T11:10:16;7.20;99.90
36924;DHT22;22841;50.252;18.688;2024-02-14T11:12:43;7.20;99.90
36924;DHT22;22841;50.252;18.688;2024-02-14T11:15:11;7.20;84.50
36924;DHT22;22841;50.252;18.688;2024-02-14T11:17:39;7.30;90.00
36924;DHT22;22841;50.252;18.688;2024-02-14T11:20:16;7.40;99.90
36924;DHT22;22841;50.252;18.688;2024-02-14T11:22:57;7.40;83.90
36924;DHT22;22841;50.252;18.688;2024-02-14T11:25:29;7.50;95.40
36924;DHT22;22841;50.252;18.688;2024-02-14T11:27:58;7.50;52.10
36924;DHT22;22841;50.252;18.688;2024-02-14T11:30:33;7.60;83.80
36924;DHT22;22841;50.252;18.688;2024-02-14T11:33:20;7.60;75.70
36924;DHT22;22841;50.252;18.688;2024-02-14T11:35:47;7.60;40.40
36924;DHT22;22841;50.252;18.688;2024-02-14T11:38:15;7.60;63.00
36924;DHT22;22841;50.252;18.688;2024-02-14T11:40:42;7.70;68.40
36924;DHT22;22841;50.252;18.688;2024-02-14T11:43:30;7.60;51.30
36924;DHT22;22841;50.252;18.688;2024-02-14T11:45:56;7.60;51.00
36924;DHT22;22841;50.252;18.688;2024-02-14T11:48:22;7.60;91.10
36924;DHT22;22841;50.252;18.688;2024-02-14T11:50:51;7.70;94.10
36924;DHT22;22841;50.252;18.688;2024-02-14T11:53:18;7.80;79.20
36924;DHT22;22841;50.252;18.688;2024-02-14T11:55:47;7.80;60.80
36924;DHT22;22841;50.252;18.688;2024-02-14T11:58:15;7.80;68.70
36924;DHT22;22841;50.252;18.688;2024-02-14T12:00:43;7.70;53.20
36924;DHT22;22841;50.252;18.688;2024-02-14T12:03:23;7.70;69.60
36924;DHT22;22841;50.252;18.688;2024-02-14T12:05:53;7.70;94.10
36924;DHT22;22841;50.252;18.688;2024-02-14T12:08:19;7.70;51.00
36924;DHT22;22841;50.252;18.688;2024-02-14T12:10:46;7.70;66.50
36924;DHT22;22841;50.252;18.688;2024-02-14T12:13:19;7.70;58.30
36924;DHT22;22841;50.252;18.688;2024-02-14T12:15:51;7.70;60.20
36924;DHT22;22841;50.252;18.688;2024-02-14T12:18:19;7.80;87.30
36924;DHT22;22841;50.252;18.688;2024-02-14T12:20:45;7.80;80.40
36924;DHT22;22841;50.252;18.688;2024-02-14T12:23:18;7.80;55.80
36924;DHT22;22841;50.252;18.688;2024-02-14T12:25:45;7.90;53.30
36924;DHT22;22841;50.252;18.688;2024-02-14T12:28:18;8.00;78.60
36924;DHT22;22841;50.252;18.688;2024-02-14T12:30:46;8.10;76.50
36924;DHT22;22841;50.252;18.688;2024-02-14T12:33:14;8.10;74.10
36924;DHT22;22841;50.252;18.688;2024-02-14T12:35:48;8.20;49.10
36924;DHT22;22841;50.252;18.688;2024-02-14T12:38:15;8.30;46.70
36924;DHT22;22841;50.252;18.688;2024-02-14T12:40:42;8.30;14.10
36924;DHT22;22841;50.252;18.688;2024-02-14T12:43:09;8.40;50.80
36924;DHT22;22841;50.252;18.688;2024-02-14T12:45:35;8.40;14.90
36924;DHT22;22841;50.252;18.688;2024-02-14T12:48:02;8.30;47.10
36924;DHT22;22841;50.252;18.688;2024-02-14T12:50:30;8.30;53.60
36924;DHT22;22841;50.252;18.688;2024-02-14T12:52:56;8.30;16.80
36924;DHT22;22841;50.252;18.688;2024-02-14T12:55:22;8.40;58.10
36924;DHT22;22841;50.252;18.688;2024-02-14T12:57:57;8.40;47.50
36924;DHT22;22841;50.252;18.688;2024-02-14T13:00:23;8.30;10.80
36924;DHT22;22841;50.252;18.688;2024-02-14T13:02:50;8.30;18.20
36924;DHT22;22841;50.252;18.688;2024-02-14T13:05:16;8.20;13.80
36924;DHT22;22841;50.252;18.688;2024-02-14T13:07:43;8.20;17.90
36924;DHT22;22841;50.252;18.688;2024-02-14T13:10:09;8.20;27.10
36924;DHT22;22841;50.252;18.688;2024-02-14T13:12:39;8.20;45.00
36924;DHT22;22841;50.252;18.688;2024-02-14T13:15:06;8.20;32.30
36924;DHT22;22841;50.252;18.688;2024-02-14T13:17:32;8.30;49.10
36924;DHT22;22841;50.252;18.688;2024-02-14T13:19:58;8.40;20.70
36924;DHT22;22841;50.252;18.688;2024-02-14T13:22:26;8.30;27.20
36924;DHT22;22841;50.252;18.688;2024-02-14T13:24:52;8.40;29.40
36924;DHT22;22841;50.252;18.688;2024-02-14T13:27:18;8.50;25.10
36924;DHT22;22841;50.252;18.688;2024-02-14T13:29:47;8.40;18.30
36924;DHT22;22841;50.252;18.688;2024-02-14T13:32:13;8.40;17.40
36924;DHT22;22841;50.252;18.688;2024-02-14T13:34:39;8.40;33.30
36924;DHT22;22841;50.252;18.688;2024-02-14T13:37:06;8.40;35.50
36924;DHT22;22841;50.252;18.688;2024-02-14T13:39:32;8.40;24.10
36924;DHT22;22841;50.252;18.688;2024-02-14T13:41:58;8.40;32.20
36924;DHT22;22841;50.252;18.688;2024-02-14T13:44:26;8.40;52.80
36924;DHT22;22841;50.252;18.688;2024-02-14T13:46:52;8.50;34.30
36924;DHT22;22841;50.252;18.688;2024-02-14T13:49:21;8.60;22.70
36924;DHT22;22841;50.252;18.688;2024-02-14T13:51:51;8.60;8.10
36924;DHT22;22841;50.252;18.688;2024-02-14T13:54:20;8.50;20.50
36924;DHT22;22841;50.252;18.688;2024-02-14T13:56:47;8.40;16.20
36924;DHT22;22841;50.252;18.688;2024-02-14T13:59:14;8.40;30.80
36924;DHT22;22841;50.252;18.688;2024-02-14T14:01:41;8.40;29.60
36924;DHT22;22841;50.252;18.688;2024-02-14T14:04:07;8.40;41.50
36924;DHT22;22841;50.252;18.688;2024-02-14T14:06:33;8.30;41.10
36924;DHT22;22841;50.252;18.688;2024-02-14T14:09:01;8.30;53.50
36924;DHT22;22841;50.252;18.688;2024-02-14T14:11:29;8.30;49.40
36924;DHT22;22841;50.252;18.688;2024-02-14T14:13:55;8.30;42.00
36924;DHT22;22841;50.252;18.688;2024-02-14T14:16:21;8.30;77.80
36924;DHT22;22841;50.252;18.688;2024-02-14T14:18:49;8.20;70.20
36924;DHT22;22841;50.252;18.688;2024-02-14T14:21:15;8.30;83.00
36924;DHT22;22841;50.252;18.688;2024-02-14T14:23:42;8.20;84.90
36924;DHT22;22841;50.252;18.688;2024-02-14T14:26:08;8.10;79.00
36924;DHT22;22841;50.252;18.688;2024-02-14T14:28:34;8.10;75.60
36924;DHT22;22841;50.252;18.688;2024-02-14T14:31:00;8.10;77.40
36924;DHT22;22841;50.252;18.688;2024-02-14T14:33:28;8.00;95.70
36924;DHT22;22841;50.252;18.688;2024-02-14T14:35:54;7.90;99.90
36924;DHT22;22841;50.252;18.688;2024-02-14T14:38:21;7.80;99.90
36924;DHT22;22841;50.252;18.688;2024-02-14T14:40:47;7.80;99.90
36924;DHT22;22841;50.252;18.688;2024-02-14T14:43:14;7.80;99.90
36924;DHT22;22841;50.252;18.688;2024-02-14T14:45:40;7.80;99.90
36924;DHT22;22841;50.252;18.688;2024-02-14T14:48:07;7.80;99.90
36924;DHT22;22841;50.252;18.688;2024-02-14T14:50:37;7.80;99.90
36924;DHT22;22841;50.252;18.688;2024-02-14T14:53:04;7.80;99.90
36924;DHT22;22841;50.252;18.688;2024-02-14T14:58:16;7.70;99.90
36924;DHT22;22841;50.252;18.688;2024-02-14T15:00:43;7.70;99.90
36924;DHT22;22841;50.252;18.688;2024-02-14T15:03:10;7.60;99.90
36924;DHT22;22841;50.252;18.688;2024-02-14T15:05:37;7.70;99.90
36924;DHT22;22841;50.252;18.688;2024-02-14T15:08:05;7.60;99.90
36924;DHT22;22841;50.252;18.688;2024-02-14T15:10:34;7.60;99.90
36924;DHT22;22841;50.252;18.688;2024-02-14T15:13:00;7.60;99.90
36924;DHT22;22841;50.252;18.688;2024-02-14T15:15:26;7.60;99.90
36924;DHT22;22841;50.252;18.688;2024-02-14T15:17:53;7.50;99.90
36924;DHT22;22841;50.252;18.688;2024-02-14T15:20:19;7.50;99.90
36924;DHT22;22841;50.252;18.688;2024-02-14T15:22:45;7.40;99.90
36924;DHT22;22841;50.252;18.688;2024-02-14T15:25:11;7.40;99.90
36924;DHT22;22841;50.252;18.688;2024-02-14T15:27:37;7.30;99.90
36924;DHT22;22841;50.252;18.688;2024-02-14T15:30:10;7.30;99.90
36924;DHT22;22841;50.252;18.688;2024-02-14T15:32:54;7.20;99.90
36924;DHT22;22841;50.252;18.688;2024-02-14T15:35:39;7.20;99.90
36924;DHT22;22841;50.252;18.688;2024-02-14T15:38:05;7.10;99.90
36924;DHT22;22841;50.252;18.688;2024-02-14T15:40:31;7.10;99.90
36924;DHT22;22841;50.252;18.688;2024-02-14T15:42:59;7.00;99.90
36924;DHT22;22841;50.252;18.688;2024-02-14T15:45:26;7.00;99.90
36924;DHT22;22841;50.252;18.688;2024-02-14T15:47:52;7.00;99.90
36924;DHT22;22841;50.252;18.688;2024-02-14T15:50:18;7.00;99.90
36924;DHT22;22841;50.252;18.688;2024-02-14T15:52:44;6.90;99.90
36924;DHT22;22841;50.252;18.688;2024-02-14T15:55:11;6.90;99.90
36924;DHT22;22841;50.252;18.688;2024-02-14T15:57:37;6.90;99.90
36924;DHT22;22841;50.252;18.688;2024-02-14T16:00:04;6.80;99.90
36924;DHT22;22841;50.252;18.688;2024-02-14T16:02:36;6.70;99.90
36924;DHT22;22841;50.252;18.688;2024-02-14T16:05:02;6.80;99.90
36924;DHT22;22841;50.252;18.688;2024-02-14T16:07:29;6.80;99.90
36924;DHT22;22841;50.252;18.688;2024-02-14T16:09:55;6.70;99.90
36924;DHT22;22841;50.252;18.688;2024-02-14T16:12:21;6.70;99.90
36924;DHT22;22841;50.252;18.688;2024-02-14T16:14:47;6.70;99.90
36924;DHT22;22841;50.252;18.688;2024-02-14T16:17:13;6.70;99.90
36924;DHT22;22841;50.252;18.688;2024-02-14T16:19:40;6.70;99.90
36924;DHT22;22841;50.252;18.688;2024-02-14T16:22:06;6.70;99.90
36924;DHT22;22841;50.252;18.688;2024-02-14T16:24:33;6.60;1.00
36924;DHT22;22841;50.252;18.688;2024-02-14T16:27:00;6.60;1.00
36924;DHT22;22841;50.252;18.688;2024-02-14T16:29:27;6.60;99.90
36924;DHT22;22841;50.252;18.688;2024-02-14T16:31:53;6.60;99.90
36924;DHT22;22841;50.252;18.688;2024-02-14T16:34:19;6.60;99.90
36924;DHT22;22841;50.252;18.688;2024-02-14T16:36:45;6.60;99.90
36924;DHT22;22841;50.252;18.688;2024-02-14T16:39:11;6.50;99.90
36924;DHT22;22841;50.252;18.688;2024-02-14T16:41:38;6.50;99.90
36924;DHT22;22841;50.252;18.688;2024-02-14T16:44:04;6.50;99.90
36924;DHT22;22841;50.252;18.688;2024-02-14T16:46:32;6.50;99.90
36924;DHT22;22841;50.252;18.688;2024-02-14T16:48:58;6.50;1.00
36924;DHT22;22841;50.252;18.688;2024-02-14T16:51:24;6.40;1.00
36924;DHT22;22841;50.252;18.688;2024-02-14T16:53:50;6.40;1.00
36924;DHT22;22841;50.252;18.688;2024-02-14T16:56:16;6.40;1.00
36924;DHT22;22841;50.252;18.688;2024-02-14T16:58:45;6.30;1.00
36924;DHT22;22841;50.252;18.688;2024-02-14T17:01:11;6.30;1.00
36924;DHT22;22841;50.252;18.688;2024-02-14T17:03:37;6.30;42.80
36924;DHT22;22841;50.252;18.688;2024-02-14T17:06:04;6.30;99.10
36924;DHT22;22841;50.252;18.688;2024-02-14T17:08:30;6.30;72.50
36924;DHT22;22841;50.252;18.688;2024-02-14T17:10:56;6.30;94.00
36924;DHT22;22841;50.252;18.688;2024-02-14T17:13:23;6.30;35.60
36924;DHT22;22841;50.252;18.688;2024-02-14T17:15:49;6.20;54.30
36924;DHT22;22841;50.252;18.688;2024-02-14T17:18:15;6.20;23.60
36924;DHT22;22841;50.252;18.688;2024-02-14T17:20:41;6.20;70.50
36924;DHT22;22841;50.252;18.688;2024-02-14T17:23:10;6.20;65.50
36924;DHT22;22841;50.252;18.688;2024-02-14T17:25:36;6.20;77.60
36924;DHT22;22841;50.252;18.688;2024-02-14T17:28:04;6.20;41.30
36924;DHT22;22841;50.252;18.688;2024-02-14T17:30:31;6.20;91.90
36924;DHT22;22841;50.252;18.688;2024-02-14T17:32:57;6.20;92.00
36924;DHT22;22841;50.252;18.688;2024-02-14T17:35:27;6.20;71.90
36924;DHT22;22841;50.252;18.688;2024-02-14T17:37:53;6.10;90.00
36924;DHT22;22841;50.252;18.688;2024-02-14T17:40:19;6.20;44.30
36924;DHT22;22841;50.252;18.688;2024-02-14T17:42:45;6.20;87.30
36924;DHT22;22841;50.252;18.688;2024-02-14T17:45:11;6.20;98.60
36924;DHT22;22841;50.252;18.688;2024-02-14T17:47:38;6.20;79.90
36924;DHT22;22841;50.252;18.688;2024-02-14T17:50:04;6.20;62.90
36924;DHT22;22841;50.252;18.688;2024-02-14T17:52:31;6.20;53.60
36924;DHT22;22841;50.252;18.688;2024-02-14T17:54:59;6.20;92.70
36924;DHT22;22841;50.252;18.688;2024-02-14T17:57:26;6.10;63.20
36924;DHT22;22841;50.252;18.688;2024-02-14T17:59:53;6.10;76.60
36924;DHT22;22841;50.252;18.688;2024-02-14T18:02:19;6.20;55.80
36924;DHT22;22841;50.252;18.688;2024-02-14T18:04:46;6.10;90.20
36924;DHT22;22841;50.252;18.688;2024-02-14T18:07:12;6.10;96.50
36924;DHT22;22841;50.252;18.688;2024-02-14T18:09:38;6.10;99.90
36924;DHT22;22841;50.252;18.688;2024-02-14T18:12:04;6.10;98.40
36924;DHT22;22841;50.252;18.688;2024-02-14T18:14:31;6.10;90.00
36924;DHT22;22841;50.252;18.688;2024-02-14T18:16:58;6.10;94.30
36924;DHT22;22841;50.252;18.688;2024-02-14T18:19:24;6.10;99.90
36924;DHT22;22841;50.252;18.688;2024-02-14T18:21:51;6.10;93.40
36924;DHT22;22841;50.252;18.688;2024-02-14T18:24:18;6.10;97.00
36924;DHT22;22841;50.252;18.688;2024-02-14T18:26:44;6.10;99.90
36924;DHT22;22841;50.252;18.688;2024-02-14T18:29:13;6.10;99.90
36924;DHT22;22841;50.252;18.688;2024-02-14T18:31:40;6.10;93.80
36924;DHT22;22841;50.252;18.688;2024-02-14T18:34:06;6.20;99.90
36924;DHT22;22841;50.252;18.688;2024-02-14T18:36:36;6.20;99.90
36924;DHT22;22841;50.252;18.688;2024-02-14T18:39:02;6.20;82.40
36924;DHT22;22841;50.252;18.688;2024-02-14T18:41:28;6.30;21.20
36924;DHT22;22841;50.252;18.688;2024-02-14T18:43:54;6.30;10.00
36924;DHT22;22841;50.252;18.688;2024-02-14T18:46:29;6.30;1.20
36924;DHT22;22841;50.252;18.688;2024-02-14T18:48:55;6.30;1.00
36924;DHT22;22841;50.252;18.688;2024-02-14T18:51:22;6.40;1.00
36924;DHT22;22841;50.252;18.688;2024-02-14T18:53:48;6.40;1.00